Time;durP1;ratioP1;P1;durP2;ratioP2;P2;SDS_P1;SDS_P2;PMS_P1;PMS_P2;Temp;Humidity;BMP_temperature;BMP_pressure;BME280_temperature;BME280_humidity;BME280_pressure;Samples;Min_cycle;Max_cycle;Signal;HPM_P1;HPM_P2
2022/08/29 00:00:17;;;;;;;13.38;12.00;;;22.60;99.90;;;;;;5057756;28;20301;-76
2022/08/29 00:02:50;;;;;;;14.45;11.93;;;22.60;99.90;;;;;;5073258;28;20556;-76
2022/08/29 00:05:21;;;;;;;15.80;11.95;;;22.60;99.90;;;;;;5075132;28;20314;-76
2022/08/29 00:07:48;;;;;;;14.52;11.38;;;22.60;99.90;;;;;;5111156;28;20277;-76
2022/08/29 00:10:15;;;;;;;16.48;11.80;;;22.50;99.90;;;;;;5112248;27;20660;-77
2022/08/29 00:12:42;;;;;;;14.63;11.50;;;22.50;99.90;;;;;;5092345;28;20222;-77
2022/08/29 00:15:12;;;;;;;11.65;10.45;;;22.50;99.90;;;;;;5072111;28;20182;-77
2022/08/29 00:17:38;;;;;;;11.05;9.90;;;22.40;99.90;;;;;;5114075;27;20198;-77
2022/08/29 00:20:07;;;;;;;13.15;10.23;;;22.40;99.90;;;;;;5068772;28;20186;-77
2022/08/29 00:22:34;;;;;;;13.18;9.57;;;22.50;99.90;;;;;;5071972;28;20182;-77
2022/08/29 00:25:03;;;;;;;14.63;9.32;;;22.50;99.90;;;;;;5083312;28;20664;-77
2022/08/29 00:27:33;;;;;;;14.18;9.30;;;22.50;99.90;;;;;;5077507;28;20190;-77
2022/08/29 00:30:00;;;;;;;11.02;8.77;;;22.40;99.90;;;;;;5083838;28;20205;-77
2022/08/29 00:32:33;;;;;;;11.77;8.10;;;22.50;99.90;;;;;;5090694;28;20249;-77
2022/08/29 00:35:08;;;;;;;11.07;8.20;;;22.50;99.90;;;;;;5105895;28;20651;-77
2022/08/29 00:37:34;;;;;;;13.93;8.32;;;22.40;99.90;;;;;;5105227;28;20197;-77
2022/08/29 00:40:03;;;;;;;12.00;7.28;;;22.40;99.90;;;;;;5088097;28;20210;-77
2022/08/29 00:42:30;;;;;;;10.15;7.85;;;22.30;99.90;;;;;;5080837;28;20677;-77
2022/08/29 00:44:56;;;;;;;10.40;7.45;;;22.30;99.90;;;;;;5070513;28;20673;-77
2022/08/29 00:47:31;;;;;;;10.32;7.30;;;22.30;99.90;;;;;;5101824;28;20292;-77
2022/08/29 00:50:01;;;;;;;9.23;7.13;;;22.30;99.90;;;;;;5098545;28;20188;-77
2022/08/29 00:52:40;;;;;;;11.95;7.22;;;22.30;99.90;;;;;;5089445;28;20201;-77
2022/08/29 00:55:16;;;;;;;9.15;6.65;;;22.30;99.90;;;;;;5091198;28;20631;-77
2022/08/29 00:57:48;;;;;;;9.13;7.07;;;22.30;99.90;;;;;;5084967;28;20190;-77
2022/08/29 01:00:16;;;;;;;11.23;7.43;;;22.20;99.90;;;;;;5096301;28;20229;-76
2022/08/29 01:02:46;;;;;;;13.88;6.68;;;22.20;99.90;;;;;;5101402;28;20233;-76
2022/08/29 01:05:16;;;;;;;8.93;6.53;;;22.20;99.90;;;;;;5092241;28;20178;-76
2022/08/29 01:07:43;;;;;;;10.13;6.63;;;22.10;99.90;;;;;;5071617;28;20186;-76
2022/08/29 01:12:14;;;;;;;8.30;6.10;;;22.00;99.90;;;;;;5094348;28;20177;-76
2022/08/29 01:13:03;;;;;;;8.98;5.93;;;22.10;99.90;;;;;;5139405;27;20198;-76
2022/08/29 01:15:32;;;;;;;9.63;6.32;;;22.00;99.90;;;;;;5112216;28;20185;-76
2022/08/29 01:18:01;;;;;;;8.63;6.05;;;22.00;99.90;;;;;;5095198;28;20934;-76
2022/08/29 01:20:56;;;;;;;9.45;6.07;;;21.90;99.90;;;;;;5113991;28;20263;-76
2022/08/29 01:23:44;;;;;;;11.13;6.28;;;21.90;99.90;;;;;;5079602;28;20265;-76
2022/08/29 01:26:12;;;;;;;8.70;6.03;;;21.90;99.90;;;;;;5113944;28;20189;-76
2022/08/29 01:28:45;;;;;;;8.10;6.50;;;21.90;99.90;;;;;;5116551;28;20585;-75
2022/08/29 01:31:20;;;;;;;6.80;4.90;;;21.90;99.90;;;;;;5117781;28;20191;-76
2022/08/29 01:33:58;;;;;;;7.40;4.60;;;21.80;99.90;;;;;;5133649;27;20197;-76
2022/08/29 01:36:37;;;;;;;9.65;4.00;;;21.70;99.90;;;;;;5120009;28;20174;-76
2022/08/29 01:39:06;;;;;;;4.80;3.83;;;21.40;99.90;;;;;;5116152;27;20179;-76
2022/08/29 01:41:34;;;;;;;5.30;4.03;;;21.40;99.90;;;;;;5060059;28;20213;-76
2022/08/29 01:44:08;;;;;;;8.30;4.20;;;21.30;99.90;;;;;;5060828;28;20183;-76
2022/08/29 01:46:35;;;;;;;8.50;3.90;;;21.20;99.90;;;;;;5077677;28;20197;-76
2022/08/29 01:49:04;;;;;;;7.68;4.18;;;21.20;99.90;;;;;;5059427;28;20179;-76
2022/08/29 01:51:31;;;;;;;8.73;4.80;;;21.30;99.90;;;;;;5090406;28;20185;-76
2022/08/29 01:53:57;;;;;;;6.85;4.50;;;21.40;99.90;;;;;;5096511;28;20380;-75
2022/08/29 01:56:30;;;;;;;6.47;4.00;;;21.40;99.90;;;;;;5109463;28;20182;-76
2022/08/29 01:59:00;;;;;;;4.40;3.87;;;21.40;99.90;;;;;;5109938;28;20179;-76
2022/08/29 02:01:37;;;;;;;8.67;4.27;;;21.30;99.90;;;;;;5100467;28;20327;-75
2022/08/29 02:04:06;;;;;;;6.63;3.97;;;21.20;99.90;;;;;;5112526;28;20242;-76
2022/08/29 02:06:34;;;;;;;5.35;3.88;;;21.20;99.90;;;;;;5096457;28;20185;-76
2022/08/29 02:09:02;;;;;;;5.10;4.03;;;21.20;99.90;;;;;;5112326;28;20182;-76
2022/08/29 02:11:28;;;;;;;5.43;3.30;;;21.00;99.90;;;;;;5110480;28;20184;-76
2022/08/29 02:13:57;;;;;;;5.40;3.37;;;21.00;99.90;;;;;;5091053;28;20428;-76
2022/08/29 02:16:26;;;;;;;5.83;3.20;;;20.90;99.90;;;;;;5112519;28;20181;-75
2022/08/29 02:18:54;;;;;;;4.40;3.08;;;20.80;99.90;;;;;;5098539;28;20764;-76
2022/08/29 02:21:25;;;;;;;3.80;3.40;;;20.70;99.90;;;;;;5079593;28;20196;-76
2022/08/29 02:23:53;;;;;;;3.07;2.70;;;20.70;99.90;;;;;;5078545;28;20537;-76
2022/08/29 02:26:21;;;;;;;3.17;2.57;;;20.70;99.90;;;;;;5095278;28;20193;-76
2022/08/29 02:28:52;;;;;;;4.10;2.27;;;20.60;99.90;;;;;;5103813;27;20197;-75
2022/08/29 02:31:40;;;;;;;2.20;1.90;;;20.50;99.90;;;;;;5096618;28;20193;-75
2022/08/29 02:34:09;;;;;;;3.27;2.13;;;20.40;99.90;;;;;;5133090;27;20220;-75
2022/08/29 02:36:38;;;;;;;2.37;2.03;;;20.50;99.90;;;;;;5116819;28;20311;-75
2022/08/29 02:39:04;;;;;;;2.40;2.20;;;20.50;99.90;;;;;;5115561;28;20185;-75
2022/08/29 02:41:31;;;;;;;2.10;1.90;;;20.50;99.90;;;;;;5082024;28;20202;-75
2022/08/29 02:43:58;;;;;;;2.30;2.03;;;20.40;99.90;;;;;;5116576;28;20185;-75
2022/08/29 02:46:25;;;;;;;1.97;1.77;;;20.40;99.90;;;;;;5108058;28;20284;-75
2022/08/29 02:48:53;;;;;;;2.30;1.87;;;20.40;99.90;;;;;;5118975;28;20531;-75
2022/08/29 02:51:29;;;;;;;3.47;2.20;;;20.40;99.90;;;;;;5119015;28;20559;-75
2022/08/29 02:53:55;;;;;;;2.10;1.90;;;20.40;99.90;;;;;;5119464;28;20214;-75
2022/08/29 02:56:22;;;;;;;1.93;1.63;;;20.40;99.90;;;;;;5119065;28;20173;-75
2022/08/29 02:58:49;;;;;;;1.83;1.73;;;20.30;99.90;;;;;;5120146;28;20491;-75
2022/08/29 03:01:20;;;;;;;2.20;1.83;;;20.30;99.90;;;;;;5095492;28;20205;-73
2022/08/29 03:03:47;;;;;;;3.80;1.80;;;20.20;99.90;;;;;;5111348;28;20186;-75
2022/08/29 03:06:14;;;;;;;2.00;1.80;;;20.20;99.90;;;;;;5109339;28;20181;-75
2022/08/29 03:08:40;;;;;;;2.00;1.80;;;20.20;99.90;;;;;;5115084;28;20642;-75
2022/08/29 03:11:09;;;;;;;2.27;2.00;;;20.30;99.90;;;;;;5080540;28;20174;-76
2022/08/29 03:13:36;;;;;;;2.23;2.03;;;20.30;99.90;;;;;;5097042;28;20690;-75
2022/08/29 03:16:04;;;;;;;2.37;2.17;;;20.30;99.90;;;;;;5081077;28;20178;-75
2022/08/29 03:18:31;;;;;;;3.33;2.27;;;20.30;99.90;;;;;;5097939;28;20204;-75
2022/08/29 03:20:58;;;;;;;2.83;1.80;;;20.30;99.90;;;;;;5130383;27;20190;-75
2022/08/29 03:23:25;;;;;;;2.20;2.00;;;20.40;99.90;;;;;;5114208;28;20185;-75
2022/08/29 03:25:51;;;;;;;1.87;1.77;;;20.40;99.90;;;;;;5102134;28;20280;-75
2022/08/29 03:28:20;;;;;;;2.00;1.70;;;20.40;99.90;;;;;;5111344;28;20190;-75
2022/08/29 03:30:47;;;;;;;2.80;1.80;;;20.30;99.90;;;;;;5078927;28;20568;-75
2022/08/29 03:33:14;;;;;;;3.50;1.70;;;20.30;99.90;;;;;;5080476;28;20289;-75
2022/08/29 03:35:41;;;;;;;4.67;1.70;;;20.20;99.90;;;;;;5082307;28;20197;-75
2022/08/29 03:38:08;;;;;;;2.93;2.13;;;20.30;99.90;;;;;;5134586;27;20181;-75
2022/08/29 03:40:35;;;;;;;2.00;1.70;;;20.30;99.90;;;;;;5135199;27;20182;-75
2022/08/29 03:43:02;;;;;;;2.80;2.07;;;20.30;99.90;;;;;;5134908;27;20177;-75
2022/08/29 03:45:28;;;;;;;5.60;2.20;;;20.30;99.90;;;;;;5105902;28;20189;-75
2022/08/29 03:47:55;;;;;;;7.40;2.20;;;20.40;99.90;;;;;;5096765;28;20792;-75
2022/08/29 03:50:23;;;;;;;4.87;2.30;;;20.40;99.90;;;;;;5115318;28;20186;-75
2022/08/29 03:52:50;;;;;;;3.53;2.20;;;20.40;99.90;;;;;;5114678;28;20232;-75
2022/08/29 03:55:18;;;;;;;4.10;2.30;;;20.40;99.90;;;;;;5099587;28;20177;-75
2022/08/29 03:57:45;;;;;;;2.10;1.60;;;20.40;99.90;;;;;;5113664;28;20209;-75
2022/08/29 04:00:17;;;;;;;2.23;2.03;;;20.30;99.90;;;;;;5090776;28;20260;-75
2022/08/29 04:02:46;;;;;;;2.27;1.97;;;20.30;99.90;;;;;;5101871;28;20268;-75
2022/08/29 04:05:15;;;;;;;2.43;2.10;;;20.40;99.90;;;;;;5126321;27;20185;-75
2022/08/29 04:07:48;;;;;;;4.10;2.07;;;20.40;99.90;;;;;;5097074;28;20651;-75
2022/08/29 04:10:24;;;;;;;2.30;2.10;;;20.40;99.90;;;;;;5079892;28;20174;-75
2022/08/29 04:12:51;;;;;;;6.17;2.47;;;20.40;99.90;;;;;;5114140;28;20657;-75
2022/08/29 04:15:19;;;;;;;3.67;2.07;;;20.40;99.90;;;;;;5096600;28;20178;-75
2022/08/29 04:17:46;;;;;;;2.73;2.40;;;20.40;99.90;;;;;;5090970;28;20191;-75
2022/08/29 04:20:14;;;;;;;2.17;1.87;;;20.50;99.90;;;;;;5094260;28;20186;-75
2022/08/29 04:22:41;;;;;;;2.90;2.37;;;20.40;99.90;;;;;;5093749;28;20179;-75
2022/08/29 04:25:12;;;;;;;2.60;2.20;;;20.40;99.90;;;;;;5076021;28;20186;-75
2022/08/29 04:27:40;;;;;;;3.30;2.00;;;20.50;99.90;;;;;;5057544;28;20286;-75
2022/08/29 04:30:17;;;;;;;3.33;2.10;;;20.60;99.90;;;;;;5109869;28;20578;-75
2022/08/29 04:32:44;;;;;;;3.20;2.90;;;20.60;99.90;;;;;;5078529;28;20233;-75
2022/08/29 04:35:15;;;;;;;4.17;3.03;;;20.60;99.90;;;;;;5101617;28;20198;-75
2022/08/29 04:37:43;;;;;;;8.57;4.33;;;20.70;99.90;;;;;;5098941;28;20190;-75
2022/08/29 04:40:14;;;;;;;6.27;4.30;;;20.70;99.90;;;;;;5096129;28;20221;-75
2022/08/29 04:42:41;;;;;;;5.90;5.30;;;20.80;99.90;;;;;;5129819;27;20573;-75
2022/08/29 04:45:16;;;;;;;6.73;6.00;;;20.90;99.90;;;;;;5079327;28;20178;-75
2022/08/29 04:47:44;;;;;;;9.37;6.83;;;21.00;99.90;;;;;;5098090;28;20598;-75
2022/08/29 04:50:15;;;;;;;9.60;7.50;;;21.00;99.90;;;;;;5097688;28;20182;-75
2022/08/29 04:52:42;;;;;;;10.77;7.30;;;21.10;99.90;;;;;;5123473;27;20210;-75
2022/08/29 04:55:10;;;;;;;8.40;6.72;;;21.20;99.90;;;;;;5096911;28;20174;-75
2022/08/29 04:57:40;;;;;;;6.40;5.80;;;21.20;99.90;;;;;;5079730;28;20174;-75
2022/08/29 05:00:12;;;;;;;6.30;5.70;;;21.30;99.90;;;;;;5114930;28;20178;-75
2022/08/29 05:02:41;;;;;;;9.50;5.47;;;21.40;99.90;;;;;;5125935;27;20187;-75
2022/08/29 05:05:10;;;;;;;6.50;5.20;;;21.40;99.90;;;;;;5086317;28;20551;-75
2022/08/29 05:07:37;;;;;;;6.05;4.20;;;21.40;99.90;;;;;;5076607;28;20175;-75
2022/08/29 05:10:17;;;;;;;5.03;3.90;;;21.50;99.90;;;;;;5103342;28;20186;-75
2022/08/29 05:12:46;;;;;;;4.40;4.00;;;21.50;99.90;;;;;;5079736;28;20210;-75
2022/08/29 05:15:14;;;;;;;5.65;4.63;;;21.50;99.90;;;;;;5097377;28;20189;-75
2022/08/29 05:17:41;;;;;;;6.32;5.57;;;21.60;99.90;;;;;;5114549;28;20201;-75
2022/08/29 05:20:09;;;;;;;10.93;7.00;;;21.80;99.90;;;;;;5078948;28;20186;-75
2022/08/29 05:22:38;;;;;;;10.27;7.32;;;21.90;99.90;;;;;;5080080;28;20194;-75
2022/08/29 05:25:05;;;;;;;7.40;6.68;;;22.00;99.90;;;;;;5080179;28;20277;-75
2022/08/29 05:27:32;;;;;;;10.40;7.50;;;22.00;99.90;;;;;;5096519;28;20239;-76
2022/08/29 05:29:58;;;;;;;9.05;7.38;;;22.10;99.90;;;;;;5079617;28;20639;-75
2022/08/29 05:32:25;;;;;;;10.30;7.20;;;22.10;99.90;;;;;;5064442;28;20240;-76
2022/08/29 05:34:51;;;;;;;9.10;6.50;;;22.20;99.90;;;;;;5129366;27;20271;-75
2022/08/29 05:37:21;;;;;;;6.68;5.78;;;22.20;99.90;;;;;;5095289;28;20174;-75
2022/08/29 05:39:49;;;;;;;5.77;4.80;;;22.20;99.90;;;;;;5129263;27;20197;-75
2022/08/29 05:42:20;;;;;;;6.32;5.50;;;22.30;99.90;;;;;;5095739;28;20245;-75
2022/08/29 05:44:47;;;;;;;10.40;6.25;;;22.30;99.90;;;;;;5079134;28;20220;-75
2022/08/29 05:47:16;;;;;;;8.27;6.70;;;22.50;99.90;;;;;;5090007;28;20178;-75
2022/08/29 05:49:45;;;;;;;7.97;7.00;;;22.60;99.90;;;;;;5096281;28;20181;-76
2022/08/29 05:52:15;;;;;;;9.35;7.65;;;22.70;99.90;;;;;;5096462;28;20231;-75
2022/08/29 05:54:43;;;;;;;9.48;6.75;;;22.70;99.90;;;;;;5091256;28;20236;-76
2022/08/29 05:57:13;;;;;;;7.28;6.30;;;22.90;99.90;;;;;;5129872;27;20204;-76
2022/08/29 05:59:39;;;;;;;9.43;7.15;;;22.90;99.90;;;;;;5112880;28;20691;-76
2022/08/29 06:02:11;;;;;;;7.63;6.32;;;23.00;99.90;;;;;;5111234;28;20197;-75
2022/08/29 06:04:39;;;;;;;11.20;6.40;;;23.00;99.90;;;;;;5120734;27;20183;-76
2022/08/29 06:07:09;;;;;;;7.80;6.40;;;23.10;99.90;;;;;;5074536;28;20198;-75
2022/08/29 06:09:38;;;;;;;16.23;7.00;;;23.10;99.90;;;;;;5129559;27;20269;-75
2022/08/29 06:12:06;;;;;;;9.20;6.40;;;23.20;99.90;;;;;;5129779;28;20206;-75
2022/08/29 06:14:33;;;;;;;11.88;6.53;;;23.30;99.90;;;;;;5097435;28;20186;-76
2022/08/29 06:17:04;;;;;;;8.63;6.45;;;23.40;99.90;;;;;;5095508;28;20628;-76
2022/08/29 06:19:33;;;;;;;8.25;6.32;;;23.40;99.90;;;;;;5094259;28;20177;-75
2022/08/29 06:22:02;;;;;;;7.70;5.65;;;23.60;99.90;;;;;;5093792;28;20215;-75
2022/08/29 06:24:32;;;;;;;8.60;5.10;;;23.60;99.90;;;;;;5128401;28;20178;-76
2022/08/29 06:27:02;;;;;;;7.43;4.95;;;23.70;99.90;;;;;;5129266;28;20277;-76
2022/08/29 06:29:29;;;;;;;10.40;5.72;;;23.80;99.90;;;;;;5096400;28;20213;-75
2022/08/29 06:31:58;;;;;;;8.35;5.60;;;23.90;99.90;;;;;;5094603;28;20186;-75
2022/08/29 06:34:26;;;;;;;9.98;5.80;;;24.10;99.90;;;;;;5094805;28;20193;-76
2022/08/29 06:36:52;;;;;;;7.05;5.63;;;24.20;99.90;;;;;;5106675;28;20639;-75
2022/08/29 06:39:19;;;;;;;6.80;5.15;;;24.30;99.90;;;;;;5131720;27;20207;-75
2022/08/29 06:41:46;;;;;;;9.98;5.60;;;24.30;99.90;;;;;;5098398;28;20189;-75
2022/08/29 06:44:13;;;;;;;11.25;5.95;;;24.40;99.90;;;;;;5118572;27;20271;-75
2022/08/29 06:46:46;;;;;;;14.00;6.82;;;24.50;99.90;;;;;;5062558;28;20190;-75
2022/08/29 06:49:16;;;;;;;11.32;7.50;;;24.60;99.90;;;;;;5057335;28;20178;-75
2022/08/29 06:51:48;;;;;;;12.43;6.80;;;24.70;99.90;;;;;;5074622;28;20190;-75
2022/08/29 06:54:15;;;;;;;12.65;6.28;;;24.90;99.90;;;;;;5102266;28;20256;-75
2022/08/29 06:56:42;;;;;;;7.35;5.57;;;24.90;99.90;;;;;;5095520;28;20201;-75
2022/08/29 06:59:10;;;;;;;9.85;5.32;;;25.00;99.90;;;;;;5128530;28;20178;-75
2022/08/29 07:01:38;;;;;;;14.15;6.00;;;25.10;99.90;;;;;;5082474;28;20175;-75
2022/08/29 07:04:06;;;;;;;8.65;5.47;;;25.20;99.90;;;;;;5090374;28;20229;-75
2022/08/29 07:06:32;;;;;;;13.77;6.43;;;25.30;99.90;;;;;;5113134;28;20708;-75
2022/08/29 07:08:59;;;;;;;12.13;5.85;;;25.40;99.90;;;;;;5115129;28;20182;-75
2022/08/29 07:11:30;;;;;;;14.90;5.95;;;25.50;99.90;;;;;;5081391;28;20182;-76
2022/08/29 07:14:03;;;;;;;11.65;5.68;;;25.60;99.90;;;;;;5081855;28;20301;-76
2022/08/29 07:16:33;;;;;;;14.75;5.75;;;25.70;99.90;;;;;;5098762;28;20213;-77
2022/08/29 07:19:02;;;;;;;6.32;4.60;;;25.70;99.90;;;;;;5104047;28;20183;-76
2022/08/29 07:21:29;;;;;;;9.40;5.22;;;25.70;99.90;;;;;;5093828;28;20183;-76
2022/08/29 07:23:58;;;;;;;7.78;4.57;;;25.80;99.90;;;;;;5074544;28;20197;-75
2022/08/29 07:26:28;;;;;;;7.35;4.32;;;25.90;99.90;;;;;;5074631;28;20181;-75
2022/08/29 07:29:05;;;;;;;10.10;4.40;;;26.00;99.90;;;;;;5131484;27;20269;-75
2022/08/29 07:31:32;;;;;;;7.03;4.20;;;26.10;99.90;;;;;;5092466;28;20191;-73
2022/08/29 07:34:00;;;;;;;9.77;4.47;;;26.10;99.90;;;;;;5064346;28;20683;-73
2022/08/29 07:36:26;;;;;;;9.05;4.65;;;26.20;99.90;;;;;;5100832;28;20182;-73
2022/08/29 07:38:53;;;;;;;6.93;3.88;;;26.30;99.90;;;;;;5113372;28;20185;-75
2022/08/29 07:41:19;;;;;;;9.10;4.15;;;26.40;99.90;;;;;;5126475;27;20182;-76
2022/08/29 07:43:46;;;;;;;6.78;4.30;;;26.50;99.90;;;;;;5090356;28;20278;-73
2022/08/29 07:46:18;;;;;;;9.82;4.55;;;26.50;99.90;;;;;;5094537;28;20194;-73
2022/08/29 07:48:45;;;;;;;13.27;4.80;;;26.60;99.90;;;;;;5093626;28;20197;-74
2022/08/29 07:51:21;;;;;;;9.25;4.20;;;26.70;99.90;;;;;;5075382;28;20281;-73
2022/08/29 07:53:49;;;;;;;7.85;4.63;;;26.70;99.90;;;;;;5124895;27;21002;-73
2022/08/29 07:56:22;;;;;;;9.82;4.38;;;26.80;99.90;;;;;;5111036;28;20765;-74
2022/08/29 07:58:49;;;;;;;11.38;4.80;;;26.80;99.90;;;;;;5099167;28;20189;-73
2022/08/29 08:01:15;;;;;;;11.25;4.47;;;26.90;99.90;;;;;;5090157;28;20192;-73
2022/08/29 08:03:42;;;;;;;10.32;4.38;;;27.00;99.90;;;;;;5108968;28;20587;-73
2022/08/29 08:06:11;;;;;;;11.70;5.05;;;27.10;99.90;;;;;;5074932;28;20186;-73
2022/08/29 08:08:38;;;;;;;10.90;4.35;;;27.10;99.90;;;;;;5094985;28;20213;-74
2022/08/29 08:11:07;;;;;;;13.10;4.90;;;27.20;99.90;;;;;;5112957;28;20630;-73
2022/08/29 08:13:36;;;;;;;10.20;4.75;;;27.20;99.90;;;;;;5113471;28;20302;-73
2022/08/29 08:16:12;;;;;;;11.05;4.93;;;27.30;99.90;;;;;;5113367;28;20190;-74
2022/08/29 08:18:40;;;;;;;9.70;4.63;;;27.30;99.90;;;;;;5096844;28;20208;-74
2022/08/29 08:21:08;;;;;;;10.25;4.63;;;27.50;99.90;;;;;;5114209;28;20205;-73
2022/08/29 08:23:35;;;;;;;10.15;4.18;;;27.60;99.90;;;;;;5131086;27;20227;-74
2022/08/29 08:26:02;;;;;;;6.95;4.00;;;27.60;99.90;;;;;;5112992;28;20182;-73
2022/08/29 08:28:29;;;;;;;9.88;4.55;;;27.60;99.90;;;;;;5113385;28;20241;-73
2022/08/29 08:30:57;;;;;;;11.82;4.90;;;27.70;99.90;;;;;;5113811;28;20182;-74
2022/08/29 08:33:25;;;;;;;7.55;4.32;;;27.80;99.90;;;;;;5097846;28;20210;-73
2022/08/29 08:35:52;;;;;;;10.95;4.32;;;27.90;99.90;;;;;;5098774;28;20231;-74
2022/08/29 08:38:20;;;;;;;10.55;4.88;;;28.00;99.90;;;;;;5115638;27;20177;-74
2022/08/29 08:41:16;;;;;;;11.65;4.35;;;28.00;99.90;;;;;;5133540;27;20173;-74
2022/08/29 08:44:20;;;;;;;8.45;4.55;;;28.00;99.90;;;;;;5075807;28;20181;-74
2022/08/29 08:46:51;;;;;;;15.02;5.43;;;28.10;99.90;;;;;;5099924;28;20270;-74
2022/08/29 08:49:44;;;;;;;14.02;5.53;;;28.20;99.90;;;;;;5133595;27;20170;-74
2022/08/29 08:52:49;;;;;;;11.60;5.50;;;28.20;99.90;;;;;;5150704;27;20219;-74
2022/08/29 08:55:44;;;;;;;11.60;5.93;;;28.30;99.90;;;;;;5115833;28;20196;-74
2022/08/29 08:58:41;;;;;;;12.13;5.63;;;28.40;99.90;;;;;;5133432;27;20184;-74
2022/08/29 09:01:27;;;;;;;15.27;5.63;;;28.60;99.90;;;;;;5134038;27;20180;-74
2022/08/29 09:04:19;;;;;;;9.60;5.70;;;28.50;99.90;;;;;;5099682;28;20220;-74
2022/08/29 09:07:10;;;;;;;12.13;5.75;;;28.50;99.90;;;;;;5133471;27;20218;-74
2022/08/29 09:10:15;;;;;;;16.48;6.00;;;28.70;99.90;;;;;;5116332;28;20173;-75
2022/08/29 09:13:18;;;;;;;13.15;6.18;;;28.80;99.90;;;;;;5099822;28;20287;-74
2022/08/29 09:15:49;;;;;;;9.18;5.40;;;29.00;99.90;;;;;;5133707;27;20169;-74
2022/08/29 09:18:45;;;;;;;12.27;5.60;;;29.10;99.90;;;;;;5116823;28;20196;-75
2022/08/29 09:21:20;;;;;;;12.45;5.70;;;29.10;99.90;;;;;;5104160;28;20547;-74
2022/08/29 09:23:56;;;;;;;11.57;5.40;;;29.20;99.90;;;;;;5093975;28;20696;-75
2022/08/29 09:26:26;;;;;;;16.88;5.93;;;29.30;99.90;;;;;;5112661;28;20197;-74
2022/08/29 09:28:54;;;;;;;11.57;5.95;;;29.30;99.90;;;;;;5111838;28;20208;-75
2022/08/29 09:31:33;;;;;;;10.80;5.70;;;29.40;99.90;;;;;;5112533;28;20536;-74
2022/08/29 09:34:08;;;;;;;15.77;5.80;;;29.40;99.90;;;;;;5112185;28;20213;-75
2022/08/29 09:36:47;;;;;;;13.23;5.68;;;29.30;99.90;;;;;;5112869;28;20181;-74
2022/08/29 09:39:28;;;;;;;14.57;5.68;;;29.50;99.90;;;;;;5094546;28;20174;-75
2022/08/29 09:41:59;;;;;;;8.57;5.22;;;29.60;99.90;;;;;;5095760;28;20174;-74
2022/08/29 09:44:30;;;;;;;12.48;5.75;;;29.50;99.90;;;;;;5078146;28;20223;-75
2022/08/29 09:47:06;;;;;;;9.70;5.20;;;29.70;99.90;;;;;;5112698;28;20202;-74
2022/08/29 09:49:39;;;;;;;10.55;5.30;;;29.80;99.90;;;;;;5113134;28;20169;-74
2022/08/29 09:52:22;;;;;;;14.18;5.57;;;30.00;99.90;;;;;;5112661;28;20236;-74
2022/08/29 09:54:52;;;;;;;10.93;5.32;;;29.80;99.90;;;;;;5074569;28;20182;-75
2022/08/29 09:57:18;;;;;;;9.73;4.78;;;30.00;99.90;;;;;;5091468;28;20190;-75
2022/08/29 10:00:13;;;;;;;10.35;5.22;;;30.00;99.90;;;;;;5074974;28;20276;-76
2022/08/29 10:02:54;;;;;;;9.50;4.72;;;30.10;99.90;;;;;;5109710;28;20187;-75
2022/08/29 10:05:40;;;;;;;12.73;4.82;;;30.10;99.90;;;;;;5095123;28;20214;-74
2022/08/29 10:08:30;;;;;;;13.00;4.93;;;30.20;99.90;;;;;;5078128;28;20186;-75
2022/08/29 10:11:23;;;;;;;11.10;4.75;;;30.30;99.90;;;;;;5112713;28;20178;-74
2022/08/29 10:14:18;;;;;;;13.93;4.75;;;30.40;99.90;;;;;;5085717;28;20283;-75
2022/08/29 10:18:19;;;;;;;7.93;4.90;;;30.60;99.90;;;;;;5082721;28;20285;-75
2022/08/29 10:19:50;;;;;;;13.68;6.15;;;30.80;99.90;;;;;;5097775;28;20170;-75
2022/08/29 10:22:58;;;;;;;16.05;5.00;;;31.00;99.90;;;;;;5112995;28;20186;-76
2022/08/29 10:25:40;;;;;;;8.75;4.75;;;30.90;99.90;;;;;;5095728;28;20177;-75
2022/08/29 10:28:41;;;;;;;10.55;4.47;;;31.00;99.90;;;;;;5112176;28;20193;-77
2022/08/29 10:31:32;;;;;;;11.88;4.70;;;30.90;99.90;;;;;;5094894;28;20215;-76
2022/08/29 10:34:37;;;;;;;9.15;5.10;;;30.70;99.90;;;;;;5095045;28;20375;-75
2022/08/29 10:37:35;;;;;;;10.98;6.20;;;30.60;99.90;;;;;;5107081;28;20182;-75
2022/08/29 10:40:13;;;;;;;14.35;5.47;;;30.60;99.90;;;;;;5097077;28;20173;-75
2022/08/29 10:42:43;;;;;;;16.17;4.90;;;30.70;99.90;;;;;;5136451;27;20185;-75
2022/08/29 10:45:53;;;;;;;12.93;5.47;;;30.70;99.90;;;;;;5103121;28;20652;-75
2022/08/29 10:49:04;;;;;;;9.77;4.93;;;30.70;99.90;;;;;;5077887;28;20550;-74
2022/08/29 10:51:43;;;;;;;10.27;4.43;;;30.70;99.90;;;;;;5087688;28;20178;-74
2022/08/29 10:54:24;;;;;;;9.05;4.07;;;30.70;99.90;;;;;;5091673;28;20225;-75
2022/08/29 10:56:53;;;;;;;12.10;4.85;;;30.60;99.90;;;;;;5071778;28;20536;-74
2022/08/29 10:59:57;;;;;;;13.10;4.72;;;30.60;99.90;;;;;;5093642;28;20185;-74
2022/08/29 11:03:07;;;;;;;15.85;4.97;;;30.60;99.90;;;;;;5095209;28;20211;-74
2022/08/29 11:05:50;;;;;;;17.52;4.60;;;30.50;99.90;;;;;;5094615;28;20189;-74
2022/08/29 11:08:29;;;;;;;7.97;4.80;;;30.60;99.90;;;;;;5114195;27;20173;-74
2022/08/29 11:10:59;;;;;;;15.32;5.78;;;30.40;99.90;;;;;;5088765;28;20233;-74
2022/08/29 11:13:48;;;;;;;10.82;4.72;;;30.30;99.90;;;;;;5097181;28;20300;-75
2022/08/29 11:16:49;;;;;;;17.65;4.90;;;30.40;99.90;;;;;;5098516;28;20244;-74
2022/08/29 11:19:23;;;;;;;11.57;4.70;;;30.30;99.90;;;;;;5099492;27;20181;-74
2022/08/29 11:22:37;;;;;;;9.43;4.75;;;30.30;99.90;;;;;;5113104;28;20219;-74
2022/08/29 11:25:16;;;;;;;12.45;4.65;;;30.30;99.90;;;;;;5041511;28;20184;-75
2022/08/29 11:28:39;;;;;;;10.55;4.80;;;30.30;99.90;;;;;;5094113;28;20193;-74
2022/08/29 11:31:32;;;;;;;11.63;4.65;;;30.30;99.90;;;;;;5096000;28;20247;-74
2022/08/29 11:34:54;;;;;;;13.40;4.65;;;30.40;99.90;;;;;;5095358;28;20237;-76
2022/08/29 11:37:55;;;;;;;12.38;4.93;;;30.30;99.90;;;;;;5050359;28;20226;-74
2022/08/29 11:41:09;;;;;;;10.48;4.20;;;30.30;99.90;;;;;;5072713;28;20201;-74
2022/08/29 11:43:43;;;;;;;9.70;4.55;;;30.40;99.90;;;;;;5072646;28;20269;-75
2022/08/29 11:46:30;;;;;;;9.15;4.32;;;30.30;99.90;;;;;;5073701;28;20601;-73
2022/08/29 11:49:30;;;;;;;8.35;4.43;;;30.10;99.90;;;;;;5107219;28;20182;-74
2022/08/29 11:52:15;;;;;;;9.52;4.60;;;30.20;99.90;;;;;;5089302;28;20269;-76
2022/08/29 11:54:42;;;;;;;12.02;4.47;;;30.20;99.90;;;;;;5095072;27;20210;-75
2022/08/29 11:57:08;;;;;;;9.07;4.00;;;30.10;99.90;;;;;;5076030;28;20570;-76
2022/08/29 11:59:50;;;;;;;12.00;4.50;;;30.10;99.90;;;;;;5108823;28;20182;-75
2022/08/29 12:02:29;;;;;;;9.60;4.25;;;30.20;99.90;;;;;;5092476;28;20205;-75
2022/08/29 12:05:28;;;;;;;9.40;4.25;;;30.20;99.90;;;;;;5101398;28;20266;-74
2022/08/29 12:08:11;;;;;;;10.80;4.43;;;30.10;99.90;;;;;;5087921;28;20301;-75
2022/08/29 12:10:55;;;;;;;11.07;4.25;;;30.00;99.90;;;;;;5092799;28;20934;-73
2022/08/29 12:13:47;;;;;;;8.85;4.28;;;30.00;99.90;;;;;;5092860;28;20221;-74
2022/08/29 12:16:26;;;;;;;7.70;4.40;;;29.90;99.90;;;;;;5096005;28;20188;-74
2022/08/29 12:18:56;;;;;;;7.90;4.40;;;29.90;99.90;;;;;;5112309;27;20207;-74
2022/08/29 12:21:38;;;;;;;7.28;4.40;;;30.00;99.90;;;;;;5084712;28;20341;-75
2022/08/29 12:24:31;;;;;;;8.55;4.45;;;30.00;99.90;;;;;;5083399;28;20191;-76
2022/08/29 12:27:01;;;;;;;13.45;4.30;;;29.90;99.90;;;;;;5102451;27;20226;-76
2022/08/29 12:29:35;;;;;;;9.80;4.30;;;29.80;99.90;;;;;;5084203;28;20227;-74
2022/08/29 12:32:01;;;;;;;8.43;4.07;;;29.90;99.90;;;;;;5065729;28;20960;-76
2022/08/29 12:35:20;;;;;;;8.63;3.55;;;29.90;99.90;;;;;;5103964;27;20194;-75
2022/08/29 12:38:34;;;;;;;8.90;4.15;;;29.80;99.90;;;;;;5125297;27;20626;-77
2022/08/29 12:41:35;;;;;;;8.80;4.20;;;29.80;99.90;;;;;;5086311;28;20209;-74
2022/08/29 12:44:10;;;;;;;10.80;4.50;;;29.80;99.90;;;;;;5079531;28;20209;-74
2022/08/29 12:46:45;;;;;;;9.45;4.47;;;29.80;99.90;;;;;;5091966;28;20312;-74
2022/08/29 12:49:49;;;;;;;8.48;4.47;;;29.80;99.90;;;;;;5068478;28;20193;-75
2022/08/29 12:52:30;;;;;;;12.77;4.70;;;29.80;99.90;;;;;;5104448;28;20552;-74
2022/08/29 12:55:22;;;;;;;12.93;4.97;;;29.80;99.90;;;;;;5083416;28;20187;-76
2022/08/29 12:57:55;;;;;;;7.55;4.03;;;29.70;99.90;;;;;;5107745;28;20220;-74
2022/08/29 13:00:28;;;;;;;8.70;4.50;;;29.70;99.90;;;;;;5076164;28;20193;-74
2022/08/29 13:03:15;;;;;;;6.55;4.00;;;29.70;99.90;;;;;;5088516;28;20209;-74
2022/08/29 13:05:41;;;;;;;11.00;4.63;;;29.70;99.90;;;;;;5088111;28;20245;-75
2022/08/29 13:08:26;;;;;;;11.18;4.93;;;29.70;99.90;;;;;;5093265;28;20188;-74
2022/08/29 13:11:04;;;;;;;10.13;4.50;;;29.50;99.90;;;;;;5102216;28;20583;-74
2022/08/29 13:13:31;;;;;;;10.80;4.60;;;29.50;99.90;;;;;;5077383;28;20220;-75
2022/08/29 13:16:04;;;;;;;9.07;4.68;;;29.40;99.90;;;;;;5075219;28;20181;-75
2022/08/29 13:18:35;;;;;;;9.70;4.85;;;29.40;99.90;;;;;;5087683;28;20185;-74
2022/08/29 13:21:24;;;;;;;9.80;4.82;;;29.40;99.90;;;;;;5074298;28;20247;-75